Data for 06/23/2013

Time Sea-Level Adjusted Pressure Absolute Pressure Temperature Relative Humidity Dew Point   
(mb) (inHg) (mb) (inHg) (C) (F) (%) (C) (F)
00:05 1018 30.06 848 25.04 7 44.7 83 4.3 39.7
00:10 1018 30.06 848 25.04 7.4 45.4 80 4.3 39.7
00:15 1018 30.06 847 25.01 7.5 45.6 80 4.4 39.9
00:20 1018 30.06 847 25.01 7.4 45.3 81 4.4 40
00:25 1018 30.06 847 25.01 7 44.6 84 4.5 40.1
00:30 1018 30.06 847 25.01 6.4 43.4 86 4.3 39.7
00:35 1018 30.06 847 25.01 6.2 43.2 87 4.1 39.5
00:40 1018 30.06 847 25.01 6.2 43.1 86 4.1 39.3
00:45 1018 30.06 847 25.01 6.1 43 86 4 39.1
00:50 1018 30.06 847 25.01 6.2 43.2 85 3.9 39
00:55 1018 30.06 847 25.01 6.4 43.5 84 3.9 39
01:00 1018 30.06 847 25.01 6.5 43.7 84 4 39.2
01:05 1018 30.06 847 25.01 6.4 43.6 84 3.9 39
01:10 1018 30.06 847 25.01 6.6 43.9 83 3.9 39
01:15 1018 30.06 847 25.01 6.6 43.9 83 4 39.2
01:20 1018 30.06 847 25.01 6.3 43.4 85 3.9 39
01:25 1018 30.06 847 25.01 6.1 42.9 85 3.7 38.7
01:30 1018 30.06 847 25.01 6.2 43.1 84 3.7 38.6
01:35 1018 30.06 847 25.01 6.3 43.4 84 3.9 38.9
01:40 1018 30.06 847 25.01 6.3 43.3 83 3.7 38.6
01:45 1018 30.06 847 25.01 6.2 43.1 83 3.6 38.4
01:50 1018 30.06 847 25.01 5.8 42.4 85 3.5 38.4
01:55 1018 30.06 847 25.01 5.6 42 86 3.4 38.2
02:00 1018 30.06 847 25.01 5.5 41.9 86 3.4 38.1
02:05 1018 30.06 847 25.01 5.6 42 86 3.4 38
02:10 1018 30.06 847 25.01 5.6 42 86 3.4 38.1
02:15 1018 30.06 847 25.01 5.5 41.9 86 3.3 37.9
02:20 1018 30.06 847 25.01 5.5 41.9 86 3.4 38.1
02:25 1018 30.06 847 25.01 5.4 41.7 86 3.2 37.8
02:30 1018 30.06 847 25.01 5.4 41.7 86 3.2 37.8
02:35 1018 30.06 847 25.01 5.6 42 84 3.1 37.6
02:40 1018 30.06 847 25.01 5.6 42.1 84 3.2 37.7
02:45 1018 30.06 847 25.01 5.4 41.7 85 3.1 37.6
02:50 1018 30.06 847 25.01 5.2 41.4 85 3 37.4
02:55 1018 30.06 847 25.01 5.3 41.5 85 3 37.3
03:00 1017 30.03 847 25.01 5.4 41.7 85 3 37.4
03:05 1017 30.03 847 25.01 5.6 42.2 83 2.9 37.3
03:10 1017 30.03 847 25.01 5.9 42.6 81 2.9 37.2
03:15 1017 30.03 847 25.01 5.7 42.3 83 3.1 37.6
03:20 1017 30.03 847 25.01 5.6 42 84 3 37.4
03:25 1017 30.03 846 24.98 5.2 41.3 85 2.9 37.3
03:30 1017 30.03 846 24.98 5 41.1 86 2.8 37.1
03:35 1017 30.03 846 24.98 5 41 86 2.9 37.1
03:40 1017 30.03 846 24.98 4.8 40.6 87 2.8 37
03:45 1017 30.03 846 24.98 4.8 40.7 86 2.7 36.8
03:50 1017 30.03 846 24.98 5 41 85 2.7 36.8
03:55 1017 30.03 846 24.98 5.1 41.1 85 2.7 36.8
04:00 1017 30.03 846 24.98 5.2 41.3 84 2.6 36.7
04:05 1017 30.03 846 24.98 5 41 84 2.6 36.7
04:10 1017 30.03 846 24.98 4.8 40.6 86 2.6 36.7
04:15 1017 30.03 846 24.98 4.7 40.5 86 2.5 36.5
04:20 1017 30.03 846 24.98 4.8 40.6 85 2.5 36.5
04:25 1017 30.03 846 24.98 5.1 41.1 82 2.3 36.1
04:30 1017 30.03 846 24.98 5.6 42.1 80 2.4 36.4
04:35 1017 30.03 846 24.98 5.8 42.5 78 2.3 36.1
04:40 1017 30.03 846 24.98 6 42.7 78 2.4 36.3
04:45 1017 30.03 846 24.98 6.2 43.1 77 2.4 36.3
04:50 1017 30.03 846 24.98 6.3 43.3 77 2.5 36.6
04:55 1017 30.03 846 24.98 5.8 42.4 80 2.6 36.6
05:00 1017 30.03 846 24.98 5.2 41.4 82 2.4 36.2
05:05 1017 30.03 846 24.98 4.9 40.7 83 2.3 36.1
05:10 1017 30.03 846 24.98 4.9 40.9 82 2 35.7
05:15 1017 30.03 846 24.98 5.6 42.1 77 1.9 35.4
05:20 1017 30.03 846 24.98 6.2 43.2 76 2.3 36.1
05:25 1017 30.03 846 24.98 6.2 43.1 76 2.3 36.2
05:30 1017 30.03 846 24.98 6.1 42.9 78 2.6 36.7
05:35 1017 30.03 846 24.98 5.7 42.2 80 2.4 36.4
05:40 1017 30.03 846 24.98 5.7 42.2 80 2.4 36.3
05:45 1017 30.03 846 24.98 5.8 42.4 79 2.4 36.4
05:50 1017 30.03 846 24.98 5.9 42.6 79 2.5 36.4
05:55 1017 30.03 846 24.98 5.9 42.6 79 2.6 36.7
06:00 1017 30.03 846 24.98 5.9 42.6 79 2.5 36.6
06:05 1017 30.03 846 24.98 6.1 43 78 2.6 36.7
06:10 1017 30.03 846 24.98 6.5 43.7 76 2.7 36.8
06:15 1017 30.03 846 24.98 6.9 44.3 75 2.7 36.8
06:20 1017 30.03 846 24.98 7.3 45.1 75 3.1 37.6
06:25 1017 30.03 846 24.98 7.5 45.6 74 3.2 37.8
06:30 1017 30.03 846 24.98 7.8 46 73 3.2 37.7
06:35 1017 30.03 846 24.98 8.2 46.7 71 3.3 37.9
06:40 1017 30.03 846 24.98 8.4 47.2 71 3.5 38.3
06:45 1017 30.03 846 24.98 8.6 47.4 71 3.6 38.4
06:50 1017 30.03 846 24.98 8.9 48 71 4 39.1
06:55 1017 30.03 846 24.98 9.3 48.7 69 3.9 39
07:00 1017 30.03 846 24.98 9.9 49.8 66 4 39.2
07:05 1017 30.03 846 24.98 10.3 50.5 67 4.4 39.9
07:10 1016 30 846 24.98 10.4 50.6 65 4.2 39.5
07:15 1016 30 846 24.98 10.9 51.5 64 4.4 40
07:20 1016 30 846 24.98 11.2 52.1 63 4.3 39.8
07:25 1016 30 846 24.98 11.6 52.9 61 4.4 40
07:30 1016 30 846 24.98 12.1 53.8 58 4.2 39.6
07:35 1016 30 846 24.98 12.2 54 59 4.6 40.2
07:40 1016 30 846 24.98 11.7 53.1 62 4.7 40.5
07:45 1017 30.03 846 24.98 11.7 53 61 4.5 40.2
07:50 1016 30 846 24.98 12 53.6 62 4.9 40.9
07:55 1016 30 846 24.98 12.3 54.2 61 5 41
08:00 1016 30 846 24.98 12.6 54.6 59 4.7 40.5
08:05 1016 30 846 24.98 12.5 54.6 58 4.6 40.3
08:10 1016 30 845 24.95 12.7 54.9 59 4.9 40.9
08:15 1016 30 845 24.95 13.3 55.9 51 3.5 38.4
08:20 1016 30 845 24.95 14.3 57.7 49 3.9 39
08:25 1016 30 845 24.95 14.6 58.3 51 4.6 40.3
08:30 1016 30 845 24.95 14.4 58 53 5.1 41.1
08:35 1016 30 845 24.95 14.8 58.7 50 4.6 40.4
08:40 1016 30 845 24.95 15 59 53 5.5 41.9
08:45 1016 30 845 24.95 15 59 52 5.3 41.6
08:50 1016 30 845 24.95 15.4 59.7 49 4.9 40.8
08:55 1016 30 845 24.95 15.2 59.3 51 5.3 41.5
09:00 1016 30 845 24.95 14.9 58.8 51 5 40.9
09:05 1016 30 845 24.95 15.3 59.5 52 5.5 41.9
09:10 1016 30 845 24.95 15.2 59.4 51 5.2 41.3
09:15 1016 30 845 24.95 14.7 58.5 50 4.4 39.8
09:20 1016 30 845 24.95 15.2 59.4 48 4.3 39.7
09:25 1016 30 845 24.95 16.2 61.2 48 5.2 41.4
09:30 1016 30 845 24.95 16.4 61.5 44 4.2 39.5
09:35 1016 30 845 24.95 17 62.6 45 5 41
09:40 1015 29.97 845 24.95 17.2 62.9 39 3.1 37.6
09:45 1015 29.97 845 24.95 16.9 62.3 42 3.9 39
09:50 1015 29.97 845 24.95 16.6 61.9 42 3.9 38.9
09:55 1015 29.97 845 24.95 16.6 61.8 44 4.4 39.9
10:00 1015 29.97 845 24.95 17.7 63.8 41 4.3 39.8
10:05 1015 29.97 844 24.92 18.1 64.6 36 2.9 37.2
10:10 1015 29.97 844 24.92 18.6 65.4 36 3.4 38.1
10:15 1015 29.97 844 24.92 18.6 65.6 35 3.1 37.6
10:20 1015 29.97 844 24.92 17.7 63.9 39 3.7 38.7
10:25 1015 29.97 844 24.92 17.8 64.1 41 4.5 40
10:30 1015 29.97 844 24.92 18.5 65.3 39 4.3 39.7
10:35 1015 29.97 844 24.92 18.1 64.6 36 3.1 37.5
10:40 1015 29.97 844 24.92 18.4 65 37 3.6 38.4
10:45 1015 29.97 844 24.92 18.2 64.7 35 2.6 36.7
10:50 1015 29.97 844 24.92 18.7 65.6 36 3.4 38
10:55 1015 29.97 844 24.92 19.4 66.9 33 3 37.3
11:00 1015 29.97 844 24.92 19.8 67.6 31 2.2 36
11:05 1015 29.97 844 24.92 18.7 65.7 32 2 35.6
11:10 1015 29.97 844 24.92 18.3 65 33 2.1 35.8
11:15 1014 29.94 844 24.92 19.2 66.6 32 2.3 36.2
11:20 1014 29.94 844 24.92 19 66.1 32 1.9 35.5
11:25 1014 29.94 844 24.92 20.2 68.4 30 2.4 36.3
11:30 1014 29.94 843 24.89 20.7 69.3 29 2.3 36.2
11:35 1014 29.94 843 24.89 19.9 67.7 32 2.8 37
11:40 1014 29.94 843 24.89 20 68 31 2.6 36.6
11:45 1014 29.94 843 24.89 19.7 67.5 31 2.3 36.1
11:50 1014 29.94 843 24.89 20.1 68.2 30 2.2 35.9
11:55 1014 29.94 843 24.89 20.5 68.9 30 2.6 36.7
12:00 1014 29.94 843 24.89 20.4 68.6 30 2.6 36.6
12:05 1014 29.94 843 24.89 20.7 69.3 30 2.6 36.8
12:10 1014 29.94 843 24.89 21 69.8 29 2.7 36.8
12:15 1014 29.94 843 24.89 20.8 69.4 30 2.8 37
12:20 1014 29.94 843 24.89 20.5 68.9 30 2.3 36.2
12:25 1014 29.94 843 24.89 19.5 67.1 32 2.6 36.8
12:30 1014 29.94 843 24.89 19.8 67.6 31 2.2 36
12:35 1014 29.94 843 24.89 19.9 67.9 31 2.4 36.3
12:40 1014 29.94 843 24.89 19.4 66.9 31 2 35.6
12:45 1013 29.91 843 24.89 20.7 69.3 30 2.7 36.9
12:50 1013 29.91 843 24.89 21 69.8 30 2.9 37.2
12:55 1013 29.91 843 24.89 21.5 70.6 29 2.9 37.1
13:00 1013 29.91 843 24.89 21.5 70.7 28 2.5 36.5
13:05 1013 29.91 843 24.89 21.6 70.9 28 2.7 36.9
13:10 1013 29.91 842 24.86 22 71.5 27 2.6 36.6
13:15 1013 29.91 842 24.86 22.6 72.6 27 2.9 37.2
13:20 1013 29.91 842 24.86 22 71.7 29 3.1 37.7
13:25 1013 29.91 842 24.86 22.5 72.6 28 3.5 38.4
13:30 1013 29.91 842 24.86 22.4 72.4 29 3.8 38.8
13:35 1013 29.91 842 24.86 21.9 71.5 30 3.8 38.8
13:40 1013 29.91 842 24.86 21 69.9 30 3 37.4
13:45 1013 29.91 842 24.86 22 71.7 29 3.2 37.7
13:50 1013 29.91 842 24.86 22.7 72.9 30 4.4 39.8
13:55 1013 29.91 842 24.86 21.7 71.1 31 4.1 39.3
14:00 1013 29.91 842 24.86 21.5 70.6 31 3.8 38.8
14:05 1013 29.91 842 24.86 21.9 71.3 29 3.3 38
14:10 1013 29.91 842 24.86 22.4 72.3 30 4 39.1
14:15 1013 29.91 842 24.86 22.7 72.8 28 3.5 38.4
14:20 1013 29.91 842 24.86 23 73.4 31 5.1 41.3
14:25 1013 29.91 842 24.86 23.4 74 29 4.7 40.4
14:30 1013 29.91 842 24.86 23 73.4 29 4.4 40
14:35 1013 29.91 842 24.86 22.2 71.9 31 4.4 39.9
14:40 1013 29.91 842 24.86 21.6 70.8 32 4.2 39.6
14:45 1013 29.91 842 24.86 21.6 71 32 4.6 40.3
14:50 1013 29.91 842 24.86 21 69.8 34 4.5 40.1
14:55 1013 29.91 842 24.86 20.7 69.3 33 4.1 39.5
15:00 1013 29.91 842 24.86 21.3 70.3 32 4.1 39.5
15:05 1013 29.91 842 24.86 21.7 71.1 32 4.6 40.3
15:10 1013 29.91 842 24.86 20.6 69 35 4.5 40.2
15:15 1013 29.91 842 24.86 21 69.8 32 3.9 39
15:20 1013 29.91 842 24.86 21.3 70.3 33 4.6 40.3
15:25 1013 29.91 842 24.86 20.6 69.1 34 4.3 39.8
15:30 1013 29.91 842 24.86 20.6 69 35 4.7 40.4
15:35 1013 29.91 842 24.86 20.1 68.1 35 4.2 39.5
15:40 1012 29.88 842 24.86 20.4 68.6 34 4 39.3
15:45 1012 29.88 842 24.86 20.5 68.9 33 3.9 39.1
15:50 1013 29.91 842 24.86 20.3 68.5 33 3.8 38.8
15:55 1013 29.91 842 24.86 20.2 68.4 36 4.9 40.8
16:00 1013 29.91 842 24.86 20.2 68.3 34 3.9 39
16:05 1013 29.91 842 24.86 20.1 68.1 33 3.6 38.5
16:10 1013 29.91 842 24.86 20.2 68.3 33 3.4 38.2
16:15 1013 29.91 842 24.86 20.4 68.6 32 3.4 38.2
16:20 1013 29.91 842 24.86 20.7 69.2 32 3.6 38.5
16:25 1012 29.88 842 24.86 21.1 69.9 31 3.4 38.2
16:30 1012 29.88 842 24.86 21 69.7 31 3.5 38.3
16:35 1012 29.88 842 24.86 20.6 69.2 34 4.3 39.7
16:40 1012 29.88 842 24.86 20.6 69.1 32 3.4 38.1
16:45 1012 29.88 842 24.86 20.6 69.1 32 3.6 38.6
16:50 1012 29.88 841 24.83 20.8 69.5 30 2.9 37.3
16:55 1012 29.88 841 24.83 20.9 69.6 31 3.4 38.1
17:00 1012 29.88 841 24.83 20.7 69.3 31 3.3 37.9
17:05 1012 29.88 841 24.83 20.7 69.3 31 3.3 37.9
17:10 1012 29.88 841 24.83 20.8 69.4 31 3.2 37.7
17:15 1012 29.88 841 24.83 20.7 69.3 31 3.1 37.5
17:20 1012 29.88 841 24.83 21.1 69.9 32 3.8 38.8
17:25 1012 29.88 841 24.83 21.1 69.9 32 3.7 38.7
17:30 1012 29.88 841 24.83 20.6 69.1 33 3.9 39.1
17:35 1012 29.88 841 24.83 20.4 68.7 34 4 39.1
17:40 1012 29.88 841 24.83 20.6 69.1 33 3.9 39
17:45 1012 29.88 841 24.83 20.6 69.2 33 4.2 39.5
17:50 1012 29.88 841 24.83 20.6 69.2 38 6 42.8
17:55 1012 29.88 841 24.83 20.7 69.3 34 4.3 39.7
18:00 1012 29.88 841 24.83 20.7 69.3 35 4.8 40.7
18:05 1012 29.88 841 24.83 20.4 68.7 33 4 39.1
18:10 1012 29.88 841 24.83 20.2 68.3 35 4.3 39.7
18:15 1012 29.88 841 24.83 20 68 33 3.4 38.1
18:20 1012 29.88 841 24.83 19.9 67.8 34 3.6 38.5
18:25 1012 29.88 841 24.83 19.7 67.5 34 3.8 38.8
18:30 1012 29.88 841 24.83 19.7 67.5 38 5.1 41.2
18:35 1012 29.88 841 24.83 19.8 67.6 35 4.2 39.5
18:40 1012 29.88 841 24.83 19.7 67.5 35 4 39.1
18:45 1012 29.88 841 24.83 19.8 67.6 34 3.7 38.7
18:50 1012 29.88 841 24.83 19.8 67.6 36 4.3 39.7
18:55 1012 29.88 841 24.83 19.9 67.7 37 4.9 40.8
19:00 1012 29.88 841 24.83 19.8 67.7 36 4.3 39.7
19:05 1012 29.88 841 24.83 19.8 67.6 36 4.6 40.2
19:10 1012 29.88 841 24.83 19.7 67.5 36 4.5 40.1
19:15 1012 29.88 841 24.83 19.7 67.5 34 3.7 38.7
19:20 1012 29.88 841 24.83 19.6 67.3 36 4.4 40
19:25 1012 29.88 841 24.83 19.6 67.3 35 3.8 38.9
19:30 1012 29.88 841 24.83 19.6 67.2 34 3.6 38.5
19:35 1012 29.88 841 24.83 19.5 67.2 34 3.3 38
19:40 1012 29.88 841 24.83 19.5 67.1 34 3.4 38.2
19:45 1012 29.88 841 24.83 19.4 67 40 5.8 42.4
19:50 1012 29.88 841 24.83 19 66.2 43 6.3 43.3
19:55 1012 29.88 841 24.83 18.6 65.4 46 6.7 44.1
20:00 1012 29.88 841 24.83 18.2 64.7 47 6.8 44.2
20:05 1012 29.88 841 24.83 18 64.3 48 6.8 44.2
20:10 1012 29.88 841 24.83 17.8 64 48 6.9 44.4
20:15 1012 29.88 841 24.83 17.7 63.8 48 6.5 43.8
20:20 1012 29.88 841 24.83 17.6 63.6 47 6.4 43.5
20:25 1012 29.88 841 24.83 17.5 63.5 46 5.9 42.7
20:30 1012 29.88 841 24.83 17.5 63.4 47 6.3 43.3
20:35 1012 29.88 841 24.83 17.3 63.2 48 6.2 43.2
20:40 1012 29.88 841 24.83 17.2 62.9 46 5.7 42.3
20:45 1012 29.88 841 24.83 17.1 62.7 47 5.9 42.6
20:50 1012 29.88 841 24.83 17 62.6 48 6 42.8
20:55 1012 29.88 841 24.83 16.9 62.4 49 6.4 43.4
21:00 1012 29.88 841 24.83 16.7 62.1 49 5.9 42.7
21:05 1012 29.88 841 24.83 16.9 62.4 45 5 41
21:10 1012 29.88 841 24.83 17.1 62.8 45 5.1 41.2
21:15 1012 29.88 841 24.83 17 62.7 46 5.3 41.6
21:20 1012 29.88 841 24.83 16.9 62.5 46 5.5 41.8
21:25 1012 29.88 841 24.83 16.9 62.4 46 5.5 41.8
21:30 1011 29.85 841 24.83 17 62.5 46 5.3 41.5
21:35 1011 29.85 841 24.83 17 62.5 46 5.4 41.6
21:40 1011 29.85 841 24.83 16.9 62.4 45 5 41
21:45 1011 29.85 841 24.83 16.7 62 54 7.3 45.1
21:50 1011 29.85 841 24.83 16.1 61 52 6.4 43.5
21:55 1011 29.85 841 24.83 15.5 60 54 6.3 43.3
22:00 1011 29.85 841 24.83 15.4 59.7 53 6.1 42.9
22:05 1011 29.85 841 24.83 15.3 59.5 52 5.6 42.1
22:10 1011 29.85 841 24.83 15.4 59.6 50 5.2 41.4
22:15 1011 29.85 841 24.83 15.3 59.6 50 5.2 41.3
22:20 1011 29.85 841 24.83 15.1 59.2 52 5.4 41.6
22:25 1011 29.85 841 24.83 14.8 58.6 52 5 41
22:30 1011 29.85 841 24.83 14.9 58.9 49 4.4 39.9
22:35 1011 29.85 840 24.81 15.2 59.4 49 4.7 40.5
22:40 1011 29.85 840 24.81 15 59 50 4.7 40.4
22:45 1011 29.85 840 24.81 14.9 58.8 50 4.7 40.5
22:50 1011 29.85 840 24.81 14.7 58.5 51 4.7 40.4
22:55 1011 29.85 840 24.81 14.5 58.1 50 4.4 40
23:00 1011 29.85 840 24.81 14.4 57.9 51 4.5 40.1
23:05 1011 29.85 840 24.81 14.1 57.4 52 4.4 39.8
23:10 1011 29.85 840 24.81 14 57.2 52 4.4 39.9
23:15 1011 29.85 840 24.81 13.8 56.9 51 4 39.1
23:20 1011 29.85 840 24.81 13.9 57 51 3.9 38.9
23:25 1011 29.85 840 24.81 13.8 56.9 50 3.6 38.6
23:30 1011 29.85 840 24.81 13.8 56.8 50 3.6 38.4
23:35 1011 29.85 840 24.81 13.8 56.8 50 3.5 38.4
23:40 1011 29.85 840 24.81 14.1 57.3 48 3.2 37.7
23:45 1011 29.85 840 24.81 14.2 57.5 48 3.5 38.3
23:50 1011 29.85 840 24.81 14.1 57.4 49 3.5 38.4
23:55 1011 29.85 840 24.81 14.1 57.3 48 3.3 38
24:00 1011 29.85 840 24.81 13.9 57.1 50 3.7 38.6